createdAt,value
2022-09-27T03:32:53.905Z,1.98
2022-09-27T03:35:21.058Z,1.60
2022-09-27T03:37:49.222Z,1.77
2022-09-27T03:40:25.581Z,1.67
2022-09-27T03:42:52.937Z,1.33
2022-09-27T03:45:29.587Z,2.22
2022-09-27T03:47:56.927Z,1.80
2022-09-27T03:50:24.249Z,1.80
2022-09-27T03:53:04.834Z,1.50
2022-09-27T03:55:32.376Z,1.58
2022-09-27T03:58:44.788Z,1.90
2022-09-27T04:01:34.448Z,1.60
2022-09-27T04:07:13.036Z,1.40
2022-09-27T04:09:49.685Z,1.67
2022-09-27T04:12:17.142Z,2.05
2022-09-27T04:14:46.847Z,1.40
2022-09-27T04:17:15.250Z,1.45
2022-09-27T04:19:43.569Z,1.63
2022-09-27T04:22:12.020Z,1.58
2022-09-27T04:24:43.871Z,1.23
2022-09-27T04:27:15.777Z,1.38
2022-09-27T04:29:51.766Z,1.65
2022-09-27T04:32:42.254Z,1.42
2022-09-27T04:35:36.067Z,1.27
2022-09-27T04:38:20.390Z,0.93
2022-09-27T04:41:11.742Z,1.20
2022-09-27T04:44:01.418Z,1.00
2022-09-27T04:46:39.374Z,1.10
2022-09-27T04:49:19.629Z,1.23
2022-09-27T04:52:25.351Z,1.30
2022-09-27T05:12:17.470Z,1.10
2022-09-27T07:22:03.036Z,0.80
2022-09-27T07:24:30.213Z,1.05
2022-09-27T07:26:57.434Z,0.82
2022-09-27T07:33:07.008Z,0.60
2022-09-27T07:35:43.851Z,0.80
2022-09-27T07:38:17.639Z,1.08
2022-09-27T07:40:50.681Z,1.30
2022-09-27T07:43:19.509Z,0.75
2022-09-27T07:45:46.984Z,0.40
2022-09-27T07:48:20.135Z,0.70
2022-09-27T07:50:48.232Z,0.70
2022-09-27T07:53:36.478Z,0.90
2022-09-27T07:59:08.306Z,0.70
2022-09-27T10:36:24.381Z,1.00
2022-09-27T10:41:18.747Z,1.00
2022-09-27T10:43:45.927Z,0.60
2022-09-27T10:46:14.738Z,0.77
2022-09-27T10:48:42.938Z,0.90
2022-09-27T10:51:39.561Z,1.45
2022-09-27T10:54:07.039Z,1.10
2022-09-27T10:56:35.467Z,1.63
2022-09-27T10:59:04.131Z,1.30
2022-09-27T11:01:41.680Z,1.05
2022-09-27T11:04:18.109Z,1.70
2022-09-27T11:06:45.492Z,1.10
2022-09-27T11:09:20.092Z,1.45
2022-09-27T11:11:47.982Z,1.15
2022-09-27T11:14:25.426Z,1.20
2022-09-27T11:17:07.903Z,1.20
2022-09-27T17:03:57.786Z,1.00
2022-09-27T17:09:22.228Z,0.70
2022-09-27T17:11:56.679Z,1.13
2022-09-27T17:14:25.901Z,1.10
2022-09-27T17:16:55.854Z,1.00
2022-09-27T17:19:30.506Z,1.08
2022-09-27T17:22:00.524Z,1.13
2022-09-27T17:24:37.132Z,1.20
2022-09-27T17:27:25.735Z,1.10
2022-09-27T17:30:14.452Z,1.40
2022-09-27T17:33:03.126Z,1.60
2022-09-27T17:38:29.636Z,1.40
2022-09-27T17:41:19.191Z,1.50
2022-09-27T17:43:58.316Z,1.42
2022-09-27T17:46:36.467Z,1.33
2022-09-27T17:49:29.379Z,1.15
2022-09-27T17:52:34.860Z,1.63
2022-09-27T17:55:07.047Z,1.75
2022-09-27T17:57:35.257Z,1.40
2022-09-27T18:03:24.709Z,2.22
2022-09-27T18:06:10.537Z,2.10
2022-09-27T18:08:46.933Z,2.63
2022-09-27T18:11:48.585Z,3.00
2022-09-27T18:14:28.781Z,2.92
2022-09-27T18:17:08.665Z,2.50
2022-09-27T18:19:51.508Z,2.65
2022-09-27T18:27:34.647Z,2.50
2022-09-27T18:30:19.608Z,2.30
2022-09-27T18:33:15.343Z,1.70
2022-09-27T18:35:58.468Z,1.77
2022-09-27T18:38:32.599Z,2.00
2022-09-27T18:44:16.764Z,3.03
2022-09-27T18:49:55.234Z,5.32
2022-09-27T18:52:43.252Z,5.68
2022-09-27T18:55:10.658Z,5.22
2022-09-27T18:57:38.013Z,3.38
2022-09-27T19:00:05.528Z,2.40
2022-09-27T19:02:33.423Z,2.67
2022-09-27T19:05:00.621Z,2.05
2022-09-27T19:07:27.758Z,2.20
2022-09-27T19:09:54.855Z,2.67
2022-09-27T19:12:21.979Z,2.72
2022-09-27T19:14:49.142Z,2.35
2022-09-27T19:17:16.303Z,2.67
2022-09-27T19:19:43.483Z,1.80
2022-09-27T19:22:10.747Z,1.95
2022-09-27T19:24:37.848Z,2.33
2022-09-27T19:27:04.984Z,2.00
2022-09-27T19:29:32.096Z,2.15
2022-09-27T19:31:59.231Z,2.42
2022-09-27T19:34:26.365Z,2.50
2022-09-27T19:36:53.554Z,2.03
2022-09-27T19:39:20.636Z,2.40
2022-09-27T19:41:47.874Z,2.40
2022-09-27T19:44:15.057Z,1.70
2022-09-27T19:46:42.769Z,2.08
2022-09-27T19:49:09.951Z,2.42
2022-09-27T19:51:37.335Z,3.00
2022-09-27T19:54:04.610Z,3.08
2022-09-27T19:56:32.708Z,2.70
2022-09-27T19:59:04.976Z,2.40
2022-09-27T20:01:34.236Z,1.70
2022-09-27T20:04:02.717Z,1.58
2022-09-27T20:06:29.907Z,1.92
2022-09-27T20:08:57.185Z,1.52
2022-09-27T20:11:24.567Z,1.80
2022-09-27T20:14:03.075Z,2.05
2022-09-27T20:16:40.462Z,2.08
2022-09-27T20:19:16.836Z,1.85
2022-09-27T20:21:51.816Z,1.70
2022-09-27T20:24:31.818Z,1.98
2022-09-27T20:26:59.309Z,1.60
2022-09-27T20:29:44.798Z,1.45
2022-09-27T20:32:32.917Z,2.78
2022-09-27T20:35:00.182Z,2.22
2022-09-27T20:37:37.510Z,1.83
2022-09-27T20:40:11.228Z,1.60
2022-09-27T20:42:42.727Z,1.83
2022-09-27T20:45:29.184Z,1.70
2022-09-27T20:47:58.349Z,1.90
2022-09-27T20:50:28.485Z,2.10
2022-09-27T20:52:55.770Z,2.17
2022-09-27T20:55:30.487Z,1.80
2022-09-27T20:57:58.931Z,1.70
2022-09-27T21:00:31.124Z,1.83
2022-09-27T21:03:09.084Z,2.05
2022-09-27T21:05:54.785Z,1.90
2022-09-27T21:08:22.569Z,1.75
2022-09-27T21:11:01.076Z,2.22
2022-09-27T21:13:35.001Z,2.83
2022-09-27T21:16:10.704Z,1.92
2022-09-27T21:18:40.680Z,2.03
2022-09-27T21:21:09.178Z,2.00
2022-09-27T21:23:40.831Z,2.15
2022-09-27T21:26:13.828Z,1.90
2022-09-27T21:28:43.670Z,1.83
2022-09-27T21:31:11.878Z,2.42
2022-09-27T21:33:39.656Z,1.70
2022-09-27T21:36:18.071Z,2.15
2022-09-27T21:38:45.407Z,2.33
2022-09-27T21:41:31.808Z,1.92
2022-09-27T21:44:20.522Z,2.22
2022-09-27T21:46:52.916Z,1.90
2022-09-27T21:49:27.498Z,2.05
2022-09-27T21:52:00.311Z,2.17
2022-09-27T21:54:33.071Z,2.20
2022-09-27T21:59:56.773Z,2.20
2022-09-27T22:05:19.872Z,1.70
2022-09-27T22:07:58.243Z,1.92
2022-09-27T22:10:36.186Z,2.08
2022-09-27T22:13:14.218Z,1.95
2022-09-27T22:15:53.327Z,1.92
2022-09-27T22:18:24.807Z,2.08
2022-09-27T22:21:06.134Z,1.83
2022-09-27T22:26:34.977Z,2.80
2022-09-27T22:29:08.378Z,2.03
2022-09-27T22:31:48.062Z,2.15
2022-09-27T22:34:35.266Z,2.10
2022-09-27T22:37:12.266Z,2.22
2022-09-27T22:39:57.444Z,2.00
2022-09-27T22:42:36.923Z,2.22
2022-09-27T22:45:12.373Z,2.00
2022-09-27T22:48:18.882Z,2.45
2022-09-27T22:51:01.877Z,2.05
2022-09-27T22:54:01.936Z,2.10
2022-09-27T22:56:33.059Z,2.47
2022-09-27T22:59:05.722Z,2.20
2022-09-27T23:04:14.527Z,2.15
2022-09-27T23:06:48.407Z,2.10
2022-09-27T23:09:29.348Z,2.17
2022-09-27T23:12:11.718Z,2.08
2022-09-27T23:14:47.918Z,2.28
2022-09-27T23:17:22.823Z,2.95
2022-09-27T23:19:57.991Z,2.22
2022-09-27T23:22:36.332Z,2.10
2022-09-27T23:25:13.423Z,2.25
2022-09-27T23:27:49.184Z,2.38
2022-09-27T23:30:27.157Z,2.40
2022-09-27T23:32:55.681Z,2.80
2022-09-27T23:35:48.384Z,2.58
2022-09-27T23:38:29.532Z,2.90
2022-09-27T23:41:10.571Z,2.08
2022-09-27T23:43:53.497Z,2.22
2022-09-27T23:46:31.719Z,2.38
2022-09-27T23:49:01.816Z,3.38
2022-09-27T23:54:32.411Z,3.50
2022-09-27T23:57:02.967Z,2.75
2022-09-27T23:59:47.311Z,3.22
